Time;durP1;ratioP1;P1;durP2;ratioP2;P2;SDS_P1;SDS_P2;PMS_P1;PMS_P2;Temp;Humidity;BMP_temperature;BMP_pressure;BME280_temperature;BME280_humidity;BME280_pressure;Samples;Min_cycle;Max_cycle;Signal;HPM_P1;HPM_P2
2023/04/16 00:02:02;;;;;;;16.55;7.55;;;;;;;24.56;47.21;98194.72;4815165;29;20058;-59
2023/04/16 00:04:32;;;;;;;16.13;7.50;;;;;;;24.52;46.65;98196.41;4796599;29;20051;-60
2023/04/16 00:07:02;;;;;;;17.63;7.57;;;;;;;24.53;47.05;98179.06;4786954;29;20063;-59
2023/04/16 00:09:31;;;;;;;19.48;7.85;;;;;;;24.53;46.12;98180.97;4797613;29;20054;-59
2023/04/16 00:12:01;;;;;;;17.67;8.63;;;;;;;24.50;46.60;98187.00;4797567;29;20150;-56
2023/04/16 00:14:30;;;;;;;22.75;7.68;;;;;;;24.50;46.92;98190.50;4798256;29;20133;-55
2023/04/16 00:16:59;;;;;;;20.90;8.38;;;;;;;24.45;48.04;98203.31;4799017;29;20103;-59
2023/04/16 00:19:29;;;;;;;15.48;7.60;;;;;;;24.40;48.01;98203.38;4798042;29;20051;-60
2023/04/16 00:21:58;;;;;;;22.40;8.73;;;;;;;24.36;47.47;98191.53;4797931;29;20051;-56
2023/04/16 00:24:27;;;;;;;23.88;8.57;;;;;;;24.33;47.61;98200.25;4796707;29;20163;-58
2023/04/16 00:26:57;;;;;;;18.40;9.30;;;;;;;24.29;48.48;98212.78;4797465;29;20103;-57
2023/04/16 00:29:27;;;;;;;26.02;9.13;;;;;;;24.26;48.72;98224.16;4803089;29;20070;-58
2023/04/16 00:31:57;;;;;;;25.02;9.90;;;;;;;24.23;48.47;98227.47;4805533;29;20478;-56
2023/04/16 00:34:26;;;;;;;21.05;9.27;;;;;;;24.21;47.86;98216.13;4791398;29;20061;-59
2023/04/16 00:36:56;;;;;;;22.88;9.63;;;;;;;24.19;48.31;98219.13;4807134;29;20050;-56
2023/04/16 00:39:25;;;;;;;22.88;9.98;;;;;;;24.19;48.46;98226.44;4807224;29;20608;-56
2023/04/16 00:41:55;;;;;;;21.15;10.48;;;;;;;24.20;49.09;98242.41;4806196;29;20050;-60
2023/04/16 00:44:24;;;;;;;21.23;9.95;;;;;;;24.19;49.14;98242.69;4798566;29;20143;-57
2023/04/16 00:46:54;;;;;;;23.75;9.70;;;;;;;24.13;50.09;98242.72;4809118;29;20061;-58
2023/04/16 00:49:24;;;;;;;20.30;9.43;;;;;;;24.15;49.80;98250.53;4811225;29;20139;-56
2023/04/16 00:51:54;;;;;;;25.83;9.98;;;;;;;24.16;50.18;98247.56;4811710;29;20480;-58
2023/04/16 00:54:24;;;;;;;25.80;9.75;;;;;;;24.19;49.71;98245.38;4797429;29;20050;-56
2023/04/16 00:56:55;;;;;;;19.98;8.70;;;;;;;24.21;49.72;98243.97;4783861;29;20059;-56
2023/04/16 00:59:25;;;;;;;27.35;8.70;;;;;;;24.23;49.87;98259.94;4794942;29;20641;-58
2023/04/16 01:01:55;;;;;;;18.55;8.48;;;;;;;24.25;50.49;98274.00;4796722;29;20061;-59
2023/04/16 01:04:25;;;;;;;18.13;8.50;;;;;;;24.23;49.69;98268.88;4834491;29;20065;-57
2023/04/16 01:06:55;;;;;;;21.92;8.35;;;;;;;24.22;49.66;98264.53;4832216;29;20649;-59
2023/04/16 01:09:24;;;;;;;13.65;7.93;;;;;;;24.26;50.53;98256.63;4834523;29;20046;-58
2023/04/16 01:11:54;;;;;;;21.45;8.48;;;;;;;24.27;50.33;98271.78;4829045;29;20054;-56
2023/04/16 01:14:23;;;;;;;17.60;7.75;;;;;;;24.28;50.48;98271.50;4838213;29;20386;-58
2023/04/16 01:16:52;;;;;;;20.75;7.97;;;;;;;24.33;50.16;98279.56;4848671;29;20133;-55
2023/04/16 01:19:22;;;;;;;18.13;8.50;;;;;;;24.38;50.56;98279.50;4834165;29;20561;-60
2023/04/16 01:21:51;;;;;;;21.83;8.02;;;;;;;24.40;50.20;98281.88;4835223;29;20050;-57
2023/04/16 01:24:21;;;;;;;15.27;8.10;;;;;;;24.40;50.85;98285.41;4834649;29;20061;-58
2023/04/16 01:26:50;;;;;;;17.48;8.88;;;;;;;24.47;50.60;98276.94;4819763;29;20046;-56
2023/04/16 01:29:20;;;;;;;15.80;8.57;;;;;;;24.54;50.50;98285.47;4825852;29;20052;-58
2023/04/16 01:31:50;;;;;;;19.08;9.30;;;;;;;24.56;50.01;98288.72;4814764;29;20732;-60
2023/04/16 01:34:30;;;;;;;21.38;9.50;;;;;;;24.65;50.27;98284.22;4835531;29;20046;-58
2023/04/16 01:37:00;;;;;;;18.10;8.82;;;;;;;24.69;49.76;98296.09;4835200;29;20058;-57
2023/04/16 01:39:29;;;;;;;19.15;10.35;;;;;;;24.73;49.31;98291.72;4818925;29;20097;-54
2023/04/16 01:41:59;;;;;;;28.02;12.27;;;;;;;24.80;48.73;98302.16;4825832;29;20486;-60
2023/04/16 01:44:29;;;;;;;30.65;13.30;;;;;;;24.87;48.41;98295.28;4834216;29;20062;-57
2023/04/16 01:47:00;;;;;;;34.50;14.63;;;;;;;24.92;48.02;98303.34;4834266;29;20057;-58
2023/04/16 01:49:30;;;;;;;25.30;13.77;;;;;;;24.97;48.24;98305.97;4830635;29;20811;-58
2023/04/16 01:52:02;;;;;;;38.65;16.58;;;;;;;25.05;48.06;98301.78;4825682;29;20054;-61
2023/04/16 01:54:31;;;;;;;46.78;21.10;;;;;;;25.15;47.04;98303.53;4833528;29;20093;-58
2023/04/16 01:57:02;;;;;;;48.20;21.63;;;;;;;25.25;47.55;98308.78;4832050;29;20050;-57
2023/04/16 01:59:31;;;;;;;47.22;22.70;;;;;;;25.37;47.56;98311.81;4834077;29;20614;-56
2023/04/16 02:02:13;;;;;;;49.40;26.05;;;;;;;25.41;46.74;98308.22;4826191;29;20062;-57
2023/04/16 02:04:44;;;;;;;;;;;;;;;25.51;46.54;98307.22;4789090;29;20074;-58
2023/04/16 02:07:13;;;;;;;45.25;25.40;;;;;;;25.58;46.96;98320.44;4810399;29;19933;-57
2023/04/16 02:09:43;;;;;;;46.17;25.77;;;;;;;25.65;46.10;98323.56;4798159;29;20609;-59
2023/04/16 02:12:12;;;;;;;52.92;25.58;;;;;;;25.75;46.78;98317.94;4797042;29;20050;-58
2023/04/16 02:14:42;;;;;;;49.38;25.63;;;;;;;25.79;45.98;98324.38;4800201;29;20054;-58
2023/04/16 02:17:14;;;;;;;56.33;29.30;;;;;;;25.89;46.13;98313.34;4797350;29;20066;-55
2023/04/16 02:19:45;;;;;;;51.25;27.58;;;;;;;26.21;45.12;98323.28;4798904;29;20058;-59
2023/04/16 02:22:14;;;;;;;51.83;28.08;;;;;;;26.50;44.47;98318.31;4797199;29;20678;-59
2023/04/16 02:24:44;;;;;;;54.30;28.20;;;;;;;26.84;43.98;98320.53;4798367;29;20061;-59
2023/04/16 02:27:14;;;;;;;47.28;25.50;;;;;;;27.08;43.70;98325.72;4812333;29;20605;-60
2023/04/16 02:29:44;;;;;;;59.80;27.02;;;;;;;27.19;42.13;98327.06;4797956;29;20055;-59
2023/04/16 02:32:17;;;;;;;47.78;26.23;;;;;;;27.27;41.71;98318.97;4812386;29;20078;-59
2023/04/16 02:34:47;;;;;;;50.08;26.40;;;;;;;27.37;40.97;98327.97;4809450;29;20070;-59
2023/04/16 02:37:16;;;;;;;53.90;23.90;;;;;;;27.52;41.08;98333.88;4794533;29;20059;-53
2023/04/16 02:39:46;;;;;;;46.42;23.67;;;;;;;27.70;41.46;98334.75;4796082;29;20131;-56
2023/04/16 02:42:16;;;;;;;47.92;22.73;;;;;;;28.06;41.39;98337.28;4814790;29;20528;-57
2023/04/16 02:44:45;;;;;;;46.00;23.48;;;;;;;28.22;40.76;98335.78;4800557;29;20055;-58
2023/04/16 02:47:14;;;;;;;40.00;20.77;;;;;;;28.22;40.64;98351.31;4802156;29;20508;-59
2023/04/16 02:49:44;;;;;;;38.58;20.75;;;;;;;28.31;39.47;98344.78;4800804;29;20637;-56
2023/04/16 02:52:14;;;;;;;36.67;19.13;;;;;;;28.17;38.32;98346.03;4819335;29;20054;-56
2023/04/16 02:54:43;;;;;;;38.03;19.58;;;;;;;28.31;40.66;98354.88;4813544;29;20069;-59
2023/04/16 02:57:12;;;;;;;41.13;17.98;;;;;;;27.94;38.22;98356.16;4800563;29;20065;-58
2023/04/16 02:59:42;;;;;;;37.42;17.23;;;;;;;28.03;40.92;98349.63;4801330;29;20137;-60
2023/04/16 03:02:12;;;;;;;31.67;15.80;;;;;;;28.08;40.66;98356.84;4786998;29;20050;-58
2023/04/16 03:04:42;;;;;;;33.15;16.10;;;;;;;28.06;40.74;98362.59;4832923;29;20049;-58
2023/04/16 03:07:12;;;;;;;37.08;15.80;;;;;;;27.77;42.62;98354.16;4836384;29;20072;-57
2023/04/16 03:09:41;;;;;;;30.88;14.95;;;;;;;28.00;42.54;98357.63;4836773;29;20057;-59
2023/04/16 03:12:11;;;;;;;36.97;14.77;;;;;;;27.84;42.56;98354.50;4836533;29;20060;-58
2023/04/16 03:14:40;;;;;;;34.63;15.60;;;;;;;27.74;42.13;98373.03;4837367;29;20058;-58
2023/04/16 03:17:10;;;;;;;33.08;15.25;;;;;;;27.87;42.36;98369.41;4836407;29;20056;-58
2023/04/16 03:19:39;;;;;;;31.73;16.10;;;;;;;27.78;42.21;98368.56;4835778;29;20058;-58
2023/04/16 03:22:08;;;;;;;33.85;15.85;;;;;;;27.94;40.35;98367.84;4835074;29;20069;-57
2023/04/16 03:24:38;;;;;;;33.22;15.75;;;;;;;28.02;43.27;98363.53;4832451;29;20148;-58
2023/04/16 03:27:07;;;;;;;35.83;16.52;;;;;;;27.90;41.31;98366.88;4822943;29;20053;-58
2023/04/16 03:29:38;;;;;;;27.58;14.68;;;;;;;27.83;40.80;98371.16;4836984;29;20060;-54
2023/04/16 03:32:08;;;;;;;31.33;15.60;;;;;;;28.07;41.87;98374.31;4835932;29;20057;-58
2023/04/16 03:34:38;;;;;;;32.60;15.32;;;;;;;28.20;41.06;98378.88;4828682;29;20054;-56
2023/04/16 03:37:10;;;;;;;34.13;15.25;;;;;;;28.19;42.33;98377.28;4836333;29;20130;-59
2023/04/16 03:39:40;;;;;;;35.73;16.13;;;;;;;28.26;43.14;98374.91;4822132;29;20054;-58
2023/04/16 03:42:11;;;;;;;35.75;15.27;;;;;;;28.22;43.15;98382.09;4828912;29;21390;-59
2023/04/16 03:44:41;;;;;;;27.02;15.00;;;;;;;28.28;42.28;98390.94;4838035;29;20137;-59
2023/04/16 03:47:11;;;;;;;36.42;13.95;;;;;;;28.29;41.72;98417.84;4805762;29;20394;-58
2023/04/16 03:49:40;;;;;;;34.03;15.30;;;;;;;28.27;38.21;98406.47;4820703;29;20085;-59
2023/04/16 03:52:10;;;;;;;34.50;15.15;;;;;;;28.27;40.50;98392.03;4836181;29;20046;-58
2023/04/16 03:54:40;;;;;;;29.83;15.57;;;;;;;28.38;41.11;98387.91;4837192;29;20382;-58
2023/04/16 03:57:19;;;;;;;29.92;15.25;;;;;;;28.19;41.90;98390.09;4835606;29;20066;-56
2023/04/16 03:59:51;;;;;;;36.22;15.15;;;;;;;28.19;41.47;98401.78;4836352;29;20084;-56
2023/04/16 04:02:22;;;;;;;40.25;14.18;;;;;;;28.39;39.45;98416.75;4834758;29;20444;-58
2023/04/16 04:04:52;;;;;;;34.55;15.13;;;;;;;28.48;38.62;98396.59;4836408;29;20058;-57
2023/04/16 04:07:21;;;;;;;35.55;14.85;;;;;;;28.58;40.94;98392.78;4835432;29;20126;-56
2023/04/16 04:09:52;;;;;;;33.83;15.40;;;;;;;28.58;39.34;98404.47;4836192;29;20041;-56
2023/04/16 04:12:21;;;;;;;30.73;14.85;;;;;;;28.65;40.16;98414.09;4816785;29;20672;-56
2023/04/16 04:14:51;;;;;;;39.90;14.98;;;;;;;28.72;39.30;98420.75;4819805;29;20168;-57
2023/04/16 04:17:20;;;;;;;32.58;15.40;;;;;;;28.83;38.19;98402.94;4819926;29;20054;-59
2023/04/16 04:19:52;;;;;;;29.42;15.27;;;;;;;28.99;39.40;98406.00;4797618;29;20085;-57
2023/04/16 04:22:28;;;;;;;34.72;15.02;;;;;;;29.05;36.37;98406.66;4814761;29;20065;-59
2023/04/16 04:24:57;;;;;;;32.33;15.57;;;;;;;29.09;38.18;98407.59;4813462;29;20118;-58
2023/04/16 04:27:29;;;;;;;31.73;15.80;;;;;;;29.20;38.84;98419.81;4820387;29;20133;-59
2023/04/16 04:29:58;;;;;;;31.38;15.45;;;;;;;29.38;37.04;98410.53;4829694;29;20055;-58
2023/04/16 04:32:28;;;;;;;32.45;15.80;;;;;;;29.40;38.37;98414.53;4827762;29;20062;-61
2023/04/16 04:35:01;;;;;;;31.70;14.27;;;;;;;29.61;37.23;98408.44;4835819;29;20138;-58
2023/04/16 04:37:30;;;;;;;33.88;15.25;;;;;;;29.78;38.19;98411.94;4835642;29;20081;-58
2023/04/16 04:40:05;;;;;;;41.70;14.25;;;;;;;30.16;35.34;98422.09;4832163;29;20058;-58
2023/04/16 04:42:35;;;;;;;39.08;15.43;;;;;;;30.39;37.25;98422.66;4816030;29;20058;-59
2023/04/16 04:45:06;;;;;;;37.60;16.30;;;;;;;30.21;38.34;98427.41;4835428;29;20061;-57
2023/04/16 04:47:35;;;;;;;46.50;16.02;;;;;;;30.09;38.38;98408.97;4835427;29;20465;-60
2023/04/16 04:50:06;;;;;;;41.63;15.38;;;;;;;30.21;39.05;98411.81;4818998;29;20066;-59
2023/04/16 04:52:35;;;;;;;40.22;15.50;;;;;;;30.25;39.21;98420.94;4838542;29;20681;-61
2023/04/16 04:55:06;;;;;;;31.13;15.25;;;;;;;30.26;38.18;98417.09;4815689;29;20050;-59
2023/04/16 04:57:35;;;;;;;29.70;14.60;;;;;;;30.20;38.68;98426.59;4816866;29;20058;-59
2023/04/16 05:00:06;;;;;;;30.27;15.02;;;;;;;30.34;38.15;98426.38;4820296;29;20046;-59
2023/04/16 05:02:46;;;;;;;34.08;13.13;;;;;;;30.44;38.18;98414.28;4836652;29;20073;-59
2023/04/16 05:05:16;;;;;;;27.92;13.27;;;;;;;30.49;37.47;98411.38;4816948;29;20398;-58
2023/04/16 05:07:45;;;;;;;28.23;14.18;;;;;;;30.51;37.80;98409.09;4818048;29;20130;-59
2023/04/16 05:10:15;;;;;;;26.25;13.60;;;;;;;30.52;37.53;98406.06;4818678;29;20058;-59
2023/04/16 05:12:48;;;;;;;26.30;13.10;;;;;;;30.34;38.35;98407.25;4818963;29;20114;-58
2023/04/16 05:15:17;;;;;;;30.85;13.98;;;;;;;30.45;39.26;98405.75;4818398;29;20082;-60
2023/04/16 05:17:47;;;;;;;30.80;13.68;;;;;;;30.07;39.45;98408.47;4822781;29;20053;-59
2023/04/16 05:20:16;;;;;;;29.70;14.32;;;;;;;29.91;39.78;98401.16;4835424;29;20057;-58
2023/04/16 05:22:46;;;;;;;36.95;14.70;;;;;;;29.93;38.73;98394.22;4834400;29;20086;-58
2023/04/16 05:26:12;;;;;;;34.72;12.75;;;;;;;29.78;39.64;98397.47;4832980;29;20505;-59
2023/04/16 05:29:40;;;;;;;27.77;11.88;;;;;;;29.73;39.41;98409.34;4833290;29;20769;-58
2023/04/16 05:33:07;;;;;;;26.85;14.05;;;;;;;29.69;39.61;98399.41;4834195;29;20553;-58
2023/04/16 05:36:34;;;;;;;37.13;14.00;;;;;;;29.54;40.18;98387.06;4832861;29;20057;-57
2023/04/16 05:40:03;;;;;;;29.33;13.60;;;;;;;29.50;40.96;98394.31;4833600;29;20137;-59
2023/04/16 05:43:31;;;;;;;32.80;14.60;;;;;;;29.48;42.08;98387.56;4833455;29;20052;-56
2023/04/16 05:46:57;;;;;;;28.77;13.85;;;;;;;29.77;40.29;98374.81;4828962;29;20493;-57
2023/04/16 05:50:24;;;;;;;29.63;14.05;;;;;;;30.29;39.95;98377.38;4831799;29;20553;-58
2023/04/16 05:53:51;;;;;;;26.88;12.85;;;;;;;30.68;40.07;98368.78;4827378;29;20049;-57
2023/04/16 05:57:18;;;;;;;36.80;13.23;;;;;;;31.00;38.21;98367.31;4815654;29;20054;-59
2023/04/16 06:00:45;;;;;;;27.77;12.35;;;;;;;31.27;36.97;98365.16;4830355;29;20054;-57
2023/04/16 06:18:18;;;;;;;28.33;11.00;;;;;;;32.26;33.51;98350.22;4826628;29;20052;-60
2023/04/16 06:20:47;;;;;;;26.02;12.75;;;;;;;32.09;30.70;98345.75;4838001;29;20084;-61
2023/04/16 06:23:17;;;;;;;27.10;11.93;;;;;;;32.39;34.51;98349.06;4837108;29;20775;-59
2023/04/16 06:25:46;;;;;;;32.50;12.10;;;;;;;32.29;34.43;98343.25;4837893;29;20535;-58
2023/04/16 06:28:15;;;;;;;25.25;11.65;;;;;;;32.42;34.21;98337.41;4838338;29;20066;-59
2023/04/16 06:30:45;;;;;;;25.75;12.38;;;;;;;32.52;34.18;98334.22;4838458;29;20534;-59
2023/04/16 06:33:15;;;;;;;30.13;12.30;;;;;;;32.61;35.26;98334.06;4837863;29;20787;-61
2023/04/16 06:35:44;;;;;;;31.80;12.43;;;;;;;32.82;35.71;98333.94;4837948;29;20766;-59
2023/04/16 06:38:14;;;;;;;32.00;11.80;;;;;;;32.84;34.28;98332.44;4838801;29;20058;-61
2023/04/16 06:40:43;;;;;;;25.45;11.73;;;;;;;32.79;34.61;98331.91;4838970;29;20387;-60
2023/04/16 06:43:14;;;;;;;41.13;12.25;;;;;;;32.84;32.99;98315.97;4837655;29;20038;-61
2023/04/16 06:45:44;;;;;;;27.33;10.77;;;;;;;32.80;32.61;98317.00;4822598;29;20064;-61
2023/04/16 06:48:14;;;;;;;28.05;10.68;;;;;;;32.89;31.34;98321.22;4837343;29;20068;-60
2023/04/16 06:50:43;;;;;;;26.08;11.23;;;;;;;32.92;32.62;98317.00;4501814;29;9999772;-60
2023/04/16 06:53:13;;;;;;;25.77;10.93;;;;;;;33.06;33.39;98309.13;4834997;29;20149;-64
2023/04/16 06:55:42;;;;;;;32.17;10.80;;;;;;;33.20;34.70;98306.81;4836302;29;20041;-62
2023/04/16 06:58:11;;;;;;;22.75;10.48;;;;;;;33.17;33.38;98301.25;4834792;29;20062;-62
2023/04/16 07:00:41;;;;;;;26.60;10.45;;;;;;;33.06;33.70;98297.38;4841268;29;20524;-59
2023/04/16 07:03:10;;;;;;;31.73;10.23;;;;;;;32.76;34.64;98299.66;4817660;29;20078;-60
2023/04/16 07:05:40;;;;;;;25.17;11.60;;;;;;;32.34;33.98;98299.16;4818965;29;20057;-60
2023/04/16 07:08:09;;;;;;;26.95;8.48;;;;;;;32.09;31.61;98290.94;4847252;29;20133;-61
2023/04/16 07:10:39;;;;;;;29.75;8.05;;;;;;;31.97;29.75;98292.88;4852739;29;20377;-60
2023/04/16 07:13:08;;;;;;;19.52;8.50;;;;;;;32.02;31.67;98290.69;4830845;29;20081;-62
2023/04/16 07:15:37;;;;;;;21.30;8.73;;;;;;;32.13;31.81;98293.03;4828038;29;20567;-61
2023/04/16 07:18:06;;;;;;;24.85;8.75;;;;;;;32.26;32.62;98294.59;4822895;29;20058;-61
2023/04/16 07:21:34;;;;;;;20.35;7.95;;;;;;;32.30;32.43;98287.28;4849911;29;20061;-64
2023/04/16 07:24:04;;;;;;;22.80;8.75;;;;;;;32.36;32.89;98288.63;4836627;29;20435;-60
2023/04/16 07:26:33;;;;;;;22.48;7.78;;;;;;;32.51;34.11;98276.97;4829848;29;20054;-63
2023/04/16 07:29:03;;;;;;;23.13;7.80;;;;;;;32.74;30.48;98274.53;4834574;29;20110;-64
2023/04/16 07:31:32;;;;;;;27.88;8.07;;;;;;;32.80;28.52;98276.66;4830286;29;20070;-63
2023/04/16 07:34:02;;;;;;;26.80;8.43;;;;;;;32.81;31.58;98274.72;4830980;29;20122;-61
2023/04/16 07:36:31;;;;;;;24.60;8.10;;;;;;;33.02;29.47;98269.03;4836941;29;20410;-63
2023/04/16 07:39:01;;;;;;;23.00;8.05;;;;;;;33.09;28.42;98271.97;4837612;29;20140;-59
2023/04/16 07:42:28;;;;;;;22.85;8.25;;;;;;;33.23;29.88;98262.22;4836302;29;20157;-59
2023/04/16 07:44:57;;;;;;;17.70;7.13;;;;;;;33.21;30.06;98260.94;4837579;29;20137;-60
2023/04/16 07:47:26;;;;;;;18.15;6.90;;;;;;;33.31;29.78;98265.94;4839744;29;20806;-60
2023/04/16 07:49:56;;;;;;;14.57;6.65;;;;;;;33.42;29.11;98254.06;4835649;29;20062;-58
2023/04/16 07:52:26;;;;;;;21.38;7.28;;;;;;;33.48;29.80;98256.56;4835989;29;20046;-59
2023/04/16 07:54:55;;;;;;;19.35;7.07;;;;;;;33.48;28.86;98251.06;4804621;29;20351;-59
2023/04/16 07:57:25;;;;;;;21.33;6.90;;;;;;;33.43;30.01;98254.88;4833483;29;20065;-60
2023/04/16 07:59:54;;;;;;;23.27;7.20;;;;;;;33.66;28.92;98260.59;4836728;29;20050;-59
2023/04/16 08:02:24;;;;;;;15.73;6.90;;;;;;;33.55;31.58;98262.25;4828818;29;20057;-63
2023/04/16 08:04:53;;;;;;;20.75;6.93;;;;;;;33.25;32.53;98254.41;4836596;29;20077;-61
2023/04/16 08:07:23;;;;;;;23.08;6.95;;;;;;;32.87;34.27;98263.16;4840684;29;20053;-61
2023/04/16 08:09:53;;;;;;;19.02;7.32;;;;;;;32.95;31.46;98253.97;4845393;29;20056;-60
2023/04/16 08:12:23;;;;;;;18.33;6.22;;;;;;;32.85;33.79;98245.44;4814425;29;20138;-60
2023/04/16 08:14:53;;;;;;;16.55;6.30;;;;;;;32.78;34.37;98246.03;4809320;29;20392;-60
2023/04/16 08:17:23;;;;;;;19.35;6.15;;;;;;;32.69;33.48;98233.63;4818176;29;20050;-60
2023/04/16 08:19:52;;;;;;;23.15;6.75;;;;;;;32.89;31.63;98227.91;4821343;29;20407;-60
2023/04/16 08:22:22;;;;;;;19.75;6.93;;;;;;;32.94;30.93;98210.41;4839853;29;20131;-59
2023/04/16 08:24:51;;;;;;;18.58;6.68;;;;;;;32.83;30.34;98212.88;4848560;29;20113;-59
2023/04/16 08:27:21;;;;;;;21.33;6.93;;;;;;;32.94;28.58;98202.97;4841230;29;20136;-59
2023/04/16 08:30:53;;;;;;;17.70;6.63;;;;;;;32.67;29.65;98205.72;4835899;29;20145;-60
2023/04/16 08:35:17;;;;;;;21.25;7.30;;;;;;;32.91;30.93;98191.91;4837363;29;20061;-59
2023/04/16 08:38:45;;;;;;;20.85;7.10;;;;;;;32.82;31.35;98188.53;4838482;29;20574;-59
2023/04/16 08:41:14;;;;;;;16.73;6.47;;;;;;;32.77;32.71;98186.84;4838699;29;20054;-61
2023/04/16 08:43:47;;;;;;;18.35;6.65;;;;;;;32.83;33.66;98177.22;4833919;29;20456;-59
2023/04/16 08:46:21;;;;;;;16.52;6.30;;;;;;;32.82;33.40;98178.34;4837369;29;20049;-60
2023/04/16 08:48:56;;;;;;;18.85;5.82;;;;;;;32.79;32.12;98176.31;4808564;29;20115;-54
2023/04/16 08:51:33;;;;;;;22.73;6.82;;;;;;;32.70;33.21;98170.19;4806637;29;20046;-56
2023/04/16 08:55:14;;;;;;;14.18;6.60;;;;;;;32.69;32.94;98154.06;4831601;29;20133;-57
2023/04/16 08:58:13;;;;;;;16.00;7.40;;;;;;;32.94;32.15;98152.78;4819156;29;20049;-53
2023/04/16 09:00:44;;;;;;;16.30;6.88;;;;;;;32.88;31.70;98143.25;4841522;29;20061;-59
2023/04/16 09:03:14;;;;;;;13.32;6.82;;;;;;;32.86;31.70;98134.56;4830307;29;20054;-56
2023/04/16 09:05:44;;;;;;;15.45;6.50;;;;;;;32.86;32.04;98135.34;4822275;29;20173;-57
2023/04/16 09:08:13;;;;;;;15.25;7.53;;;;;;;32.74;32.90;98127.19;4834921;29;20065;-57
2023/04/16 09:10:43;;;;;;;19.17;7.30;;;;;;;32.67;31.27;98126.19;4836003;29;20053;-58
2023/04/16 09:13:15;;;;;;;18.58;6.28;;;;;;;32.61;31.60;98131.13;4834222;29;20068;-59
2023/04/16 09:15:46;;;;;;;22.67;6.60;;;;;;;32.37;29.80;98117.53;4835036;29;20046;-58
2023/04/16 09:18:15;;;;;;;20.15;6.85;;;;;;;32.20;29.73;98117.81;4831187;29;20169;-59
2023/04/16 09:20:44;;;;;;;23.23;7.15;;;;;;;32.01;30.98;98113.75;4833408;29;20054;-57
2023/04/16 09:23:14;;;;;;;21.70;6.57;;;;;;;32.05;31.27;98109.16;4836600;29;20073;-62
2023/04/16 09:25:43;;;;;;;21.73;6.85;;;;;;;32.18;31.32;98114.63;4845689;29;20165;-60
2023/04/16 09:28:32;;;;;;;21.42;7.35;;;;;;;32.09;32.74;98104.59;4826151;29;20056;-62
2023/04/16 09:31:28;;;;;;;16.58;6.82;;;;;;;32.04;33.22;98101.31;4812818;29;20069;-60
2023/04/16 09:34:07;;;;;;;21.63;6.30;;;;;;;32.06;33.60;98090.78;4820189;29;20049;-62
2023/04/16 09:36:36;;;;;;;22.88;7.35;;;;;;;32.04;33.12;98093.84;4835595;29;20382;-63
2023/04/16 09:39:05;;;;;;;16.25;7.70;;;;;;;31.97;33.70;98087.38;4831043;29;20057;-61
2023/04/16 09:41:38;;;;;;;20.42;7.45;;;;;;;31.89;32.50;98082.84;4811093;29;20056;-61
2023/04/16 09:44:08;;;;;;;27.98;7.95;;;;;;;31.82;33.62;98088.91;4837562;29;20054;-60
2023/04/16 09:46:42;;;;;;;17.58;8.00;;;;;;;31.88;32.92;98083.97;4823017;29;20069;-61
2023/04/16 09:49:16;;;;;;;20.92;8.57;;;;;;;31.95;32.52;98081.47;4821809;29;20050;-61
2023/04/16 09:51:51;;;;;;;24.20;7.88;;;;;;;32.04;32.81;98074.66;4836910;29;20110;-61
2023/04/16 09:54:20;;;;;;;23.92;8.43;;;;;;;32.01;33.53;98083.59;4837903;29;20042;-60
2023/04/16 09:56:49;;;;;;;20.42;8.75;;;;;;;32.01;32.79;98067.16;4832096;29;20141;-60
2023/04/16 09:59:23;;;;;;;30.13;9.18;;;;;;;32.00;32.75;98065.56;4833494;29;20485;-60
2023/04/16 10:01:59;;;;;;;29.40;9.90;;;;;;;32.03;31.21;98061.34;4831613;29;20077;-60
2023/04/16 10:04:50;;;;;;;21.60;11.10;;;;;;;31.95;31.91;98057.63;4804197;29;20399;-61
2023/04/16 10:07:21;;;;;;;29.52;10.63;;;;;;;31.90;31.92;98055.13;4823995;29;20081;-60
2023/04/16 10:09:51;;;;;;;27.50;10.73;;;;;;;31.82;31.54;98050.56;4838652;29;20050;-61
2023/04/16 10:12:21;;;;;;;31.42;10.63;;;;;;;31.79;31.56;98053.19;4818869;29;20065;-62
2023/04/16 10:14:51;;;;;;;26.95;10.15;;;;;;;31.86;31.79;98043.25;4828893;29;20054;-60
2023/04/16 10:17:21;;;;;;;22.05;9.63;;;;;;;31.86;31.81;98040.53;4833552;29;20054;-61
2023/04/16 10:19:51;;;;;;;26.17;9.02;;;;;;;31.84;31.28;98039.25;4840068;29;20171;-59
2023/04/16 10:22:20;;;;;;;20.10;9.25;;;;;;;31.86;31.19;98035.03;4840111;29;20398;-59
2023/04/16 10:24:51;;;;;;;27.05;9.40;;;;;;;31.84;30.81;98028.31;4847240;29;20050;-60
2023/04/16 10:27:21;;;;;;;23.20;9.15;;;;;;;31.83;32.11;98034.91;4834418;29;20095;-59
2023/04/16 10:29:51;;;;;;;26.27;8.63;;;;;;;31.83;31.58;98027.50;4827796;29;20050;-59
2023/04/16 10:32:21;;;;;;;25.42;9.55;;;;;;;31.72;32.37;98029.16;4830032;29;20061;-60
2023/04/16 10:34:51;;;;;;;33.67;9.57;;;;;;;31.68;33.00;98027.44;4827349;29;20068;-60
2023/04/16 10:37:30;;;;;;;24.42;9.50;;;;;;;31.56;31.86;98017.31;4835643;29;20050;-61
2023/04/16 10:40:00;;;;;;;29.98;9.82;;;;;;;31.59;32.09;98016.63;4837905;29;20046;-59
2023/04/16 10:42:31;;;;;;;19.70;8.13;;;;;;;31.60;31.96;98015.50;4832989;29;20061;-58
2023/04/16 10:45:00;;;;;;;35.90;8.85;;;;;;;31.63;32.24;98009.31;4814164;29;20060;-59
2023/04/16 10:47:30;;;;;;;25.25;8.38;;;;;;;31.61;30.64;98017.88;4825141;29;20058;-58
2023/04/16 10:50:00;;;;;;;28.40;8.38;;;;;;;31.58;30.85;97999.41;4839558;29;20057;-59
2023/04/16 10:52:30;;;;;;;19.02;9.05;;;;;;;31.68;29.71;98006.34;4824923;29;20167;-60
2023/04/16 10:55:00;;;;;;;34.10;9.63;;;;;;;31.67;29.76;98009.41;4816535;29;20058;-60
2023/04/16 10:57:31;;;;;;;21.05;8.73;;;;;;;31.70;30.01;98005.97;4842880;29;20061;-60
2023/04/16 11:00:01;;;;;;;30.35;8.73;;;;;;;31.66;29.78;97994.94;4824314;29;20081;-60
2023/04/16 11:02:31;;;;;;;21.70;9.43;;;;;;;31.70;29.42;98000.50;4841728;29;20054;-60
2023/04/16 11:05:01;;;;;;;30.20;11.48;;;;;;;31.98;25.83;98004.84;4843818;29;20081;-57
2023/04/16 11:07:34;;;;;;;28.45;11.90;;;;;;;32.04;29.32;97995.22;4836242;29;20054;-61
2023/04/16 11:10:06;;;;;;;28.20;12.25;;;;;;;32.02;28.86;97994.78;4847561;29;20053;-60
2023/04/16 11:12:38;;;;;;;23.50;12.43;;;;;;;32.05;28.32;97994.06;4825345;29;20073;-62
2023/04/16 11:15:11;;;;;;;33.85;12.00;;;;;;;32.04;28.95;97992.47;4844062;29;20087;-61
2023/04/16 11:17:49;;;;;;;28.63;12.00;;;;;;;32.16;27.98;97996.34;4850661;29;20149;-59
2023/04/16 11:20:21;;;;;;;28.63;12.48;;;;;;;32.09;29.30;97999.69;4844582;29;20061;-59
2023/04/16 11:22:53;;;;;;;27.48;11.15;;;;;;;32.37;29.93;97991.41;4808636;29;20053;-59
2023/04/16 11:25:28;;;;;;;32.88;11.48;;;;;;;32.34;28.25;97997.63;4841885;29;20053;-57
2023/04/16 11:27:58;;;;;;;32.13;11.23;;;;;;;32.20;30.74;98000.78;4834947;29;20405;-59
2023/04/16 11:30:33;;;;;;;29.23;10.70;;;;;;;32.07;31.00;97989.06;4836565;29;20050;-59
2023/04/16 11:33:08;;;;;;;25.40;11.50;;;;;;;31.99;30.82;97991.97;4836124;29;20050;-61
2023/04/16 11:35:39;;;;;;;28.65;10.75;;;;;;;31.88;31.83;97997.13;4839537;29;20068;-60
2023/04/16 11:38:08;;;;;;;32.35;10.30;;;;;;;31.77;31.75;97992.50;4847186;29;20557;-61
2023/04/16 11:40:37;;;;;;;29.05;10.20;;;;;;;31.72;30.22;97990.81;4833089;29;20517;-59
2023/04/16 11:43:15;;;;;;;27.20;10.27;;;;;;;31.75;30.83;97992.03;4841029;29;21649;-61
2023/04/16 11:46:01;;;;;;;27.75;9.93;;;;;;;31.68;31.66;97991.84;4819397;29;20058;-60
2023/04/16 11:48:54;;;;;;;23.42;9.85;;;;;;;31.51;31.49;97984.69;4806744;29;20061;-60
2023/04/16 11:51:23;;;;;;;28.80;10.05;;;;;;;31.39;32.74;97987.44;4816263;29;20058;-60
2023/04/16 11:53:54;;;;;;;30.20;10.45;;;;;;;31.30;32.87;97986.78;4833022;29;20090;-60
2023/04/16 11:56:32;;;;;;;27.15;9.38;;;;;;;31.18;33.10;97987.63;4820593;29;20392;-58
2023/04/16 11:59:18;;;;;;;28.45;9.32;;;;;;;31.04;32.88;97989.91;4837534;29;20153;-57
2023/04/16 12:01:54;;;;;;;35.45;9.18;;;;;;;30.91;33.62;97982.81;4835557;29;20521;-58
2023/04/16 12:04:26;;;;;;;19.38;7.72;;;;;;;30.87;32.26;97993.66;4826557;29;20486;-59
2023/04/16 12:07:12;;;;;;;28.13;7.63;;;;;;;30.81;33.29;97980.53;4833928;29;20137;-62
2023/04/16 12:09:42;;;;;;;33.72;7.55;;;;;;;30.68;33.95;97985.22;4835046;29;20077;-60
2023/04/16 12:12:29;;;;;;;25.27;7.53;;;;;;;30.54;34.59;97992.94;4824860;29;20068;-62